Time;durP1;ratioP1;P1;durP2;ratioP2;P2;SDS_P1;SDS_P2;PMS_P1;PMS_P2;Temp;Humidity;BMP_temperature;BMP_pressure;BME280_temperature;BME280_humidity;BME280_pressure;Samples;Min_cycle;Max_cycle;Signal;HPM_P1;HPM_P2
2022/09/21 00:01:41;;;;;;;;;;;;;;;;;;4933981;29;19918;-89
2022/09/21 00:04:06;;;;;;;;;;;;;;;;;;4933607;29;19918;-89
2022/09/21 00:06:32;;;;;;;;;;;;;;;;;;4934038;29;19922;-88
2022/09/21 00:08:57;;;;;;;;;;;;;;;;;;4924143;29;19915;-88
2022/09/21 00:11:23;;;;;;;;;;;;;;;;;;4914556;29;19923;-90
2022/09/21 00:13:49;;;;;;;;;;;;;;;;;;4913743;29;19911;-90
2022/09/21 00:16:14;;;;;;;;;;;;;;;;;;4914548;29;20049;-88
2022/09/21 00:18:39;;;;;;;;;;;;;;;;;;4914624;29;19911;-89
2022/09/21 00:21:05;;;;;;;;;;;;;;;;;;4914243;29;19922;-89
2022/09/21 00:23:30;;;;;;;;;;;;;;;;;;4914801;29;19956;-91
2022/09/21 00:25:55;;;;;;;;;;;;;;;;;;4914630;29;19911;-88
2022/09/21 00:28:20;;;;;;;;;;;;;;;;;;4914859;29;19911;-88
2022/09/21 00:30:50;;;;;;;;;;;;;;;;;;4915218;29;20341;-88
2022/09/21 00:33:15;;;;;;;;;;;;;;;;;;4918481;29;19918;-88
2022/09/21 00:35:41;;;;;;;;;;;;;;;;;;4918432;29;19915;-89
2022/09/21 00:38:06;;;;;;;;;;;;;;;;;;4918629;29;19911;-88
2022/09/21 00:40:31;;;;;;;;;;;;;;;;;;4918489;29;19911;-89
2022/09/21 00:42:56;;;;;;;;;;;;;;;;;;4918388;29;19939;-91
2022/09/21 00:45:21;;;;;;;;;;;;;;;;;;4918144;29;19915;-89
2022/09/21 00:47:46;;;;;;;;;;;;;;;;;;4918687;29;19911;-88
2022/09/21 00:50:12;;;;;;;;;;;;;;;;;;4918342;29;19915;-90
2022/09/21 00:52:38;;;;;;;;;;;;;;;;;;4918248;29;19920;-88
2022/09/21 00:55:03;;;;;;;;;;;;;;;;;;4918539;29;19922;-90
2022/09/21 00:57:29;;;;;;;;;;;;;;;;;;4918049;29;19911;-88
2022/09/21 00:59:55;;;;;;;;;;;;;;;;;;4918321;29;19911;-91
2022/09/21 01:02:20;;;;;;;;;;;;;;;;;;4917996;29;19917;-90
2022/09/21 01:04:45;;;;;;;;;;;;;;;;;;4917862;29;19911;-88
2022/09/21 01:07:11;;;;;;;;;;;;;;;;;;4918055;29;19911;-89
2022/09/21 01:09:36;;;;;;;;;;;;;;;;;;4918043;29;20011;-89
2022/09/21 01:12:01;;;;;;;;;;;;;;;;;;4917590;29;19958;-90
2022/09/21 01:14:26;;;;;;;;;;;;;;;;;;4917538;29;20309;-88
2022/09/21 01:16:51;;;;;;;;;;;;;;;;;;4917874;29;19922;-88
2022/09/21 01:19:17;;;;;;;;;;;;;;;;;;4917348;29;19967;-89
2022/09/21 01:21:42;;;;;;;;;;;;;;;;;;4917741;29;19915;-88
2022/09/21 01:24:07;;;;;;;;;;;;;;;;;;4917355;29;19948;-88
2022/09/21 01:26:33;;;;;;;;;;;;;;;;;;4917112;29;19915;-88
2022/09/21 01:28:58;;;;;;;;;;;;;;;;;;4918054;29;19967;-88
2022/09/21 01:31:23;;;;;;;;;;;;;;;;;;4917783;29;19911;-89
2022/09/21 01:33:48;;;;;;;;;;;;;;;;;;4917274;29;20273;-88
2022/09/21 01:36:13;;;;;;;;;;;;;;;;;;4917298;29;19919;-90
2022/09/21 01:38:38;;;;;;;;;;;;;;;;;;4917275;29;19939;-89
2022/09/21 01:41:04;;;;;;;;;;;;;;;;;;4917367;29;20292;-88
2022/09/21 01:43:30;;;;;;;;;;;;;;;;;;4916955;29;19911;-90
2022/09/21 01:45:55;;;;;;;;;;;;;;;;;;4916974;29;20152;-87
2022/09/21 01:48:21;;;;;;;;;;;;;;;;;;4917294;29;19911;-89
2022/09/21 01:50:46;;;;;;;;;;;;;;;;;;4917058;29;19911;-91
2022/09/21 01:53:11;;;;;;;;;;;;;;;;;;4917010;29;19911;-88
2022/09/21 01:55:37;;;;;;;;;;;;;;;;;;4916160;29;19923;-88
2022/09/21 01:58:02;;;;;;;;;;;;;;;;;;4915830;29;19990;-89
2022/09/21 02:00:28;;;;;;;;;;;;;;;;;;4916824;29;19911;-90
2022/09/21 02:02:53;;;;;;;;;;;;;;;;;;4917347;29;20366;-89
2022/09/21 02:05:19;;;;;;;;;;;;;;;;;;4916663;29;20266;-91
2022/09/21 02:07:44;;;;;;;;;;;;;;;;;;4917177;29;19994;-88
2022/09/21 02:10:09;;;;;;;;;;;;;;;;;;4916851;29;19911;-90
2022/09/21 02:12:34;;;;;;;;;;;;;;;;;;4916471;29;19919;-89
2022/09/21 02:14:59;;;;;;;;;;;;;;;;;;4916588;29;19915;-89
2022/09/21 02:17:27;;;;;;;;;;;;;;;;;;4916764;29;19918;-91
2022/09/21 02:19:53;;;;;;;;;;;;;;;;;;4916590;29;19938;-88
2022/09/21 02:22:18;;;;;;;;;;;;;;;;;;4916291;29;20070;-89
2022/09/21 02:24:43;;;;;;;;;;;;;;;;;;4915904;29;19911;-88
2022/09/21 02:27:08;;;;;;;;;;;;;;;;;;4916639;29;19911;-89
2022/09/21 02:29:33;;;;;;;;;;;;;;;;;;4916573;29;19911;-88
2022/09/21 02:31:59;;;;;;;;;;;;;;;;;;4916556;29;19927;-88
2022/09/21 02:34:24;;;;;;;;;;;;;;;;;;4916242;29;19971;-88
2022/09/21 02:36:49;;;;;;;;;;;;;;;;;;4916122;29;20373;-89
2022/09/21 02:39:14;;;;;;;;;;;;;;;;;;4916664;29;19927;-88
2022/09/21 02:41:40;;;;;;;;;;;;;;;;;;4916483;29;19911;-88
2022/09/21 02:44:05;;;;;;;;;;;;;;;;;;4914708;29;19911;-88
2022/09/21 02:46:30;;;;;;;;;;;;;;;;;;4915738;29;20128;-88
2022/09/21 02:48:55;;;;;;;;;;;;;;;;;;4915548;29;19967;-90
2022/09/21 02:51:20;;;;;;;;;;;;;;;;;;4916190;29;19911;-88
2022/09/21 02:53:46;;;;;;;;;;;;;;;;;;4915996;29;19911;-90
2022/09/21 02:56:11;;;;;;;;;;;;;;;;;;4915503;29;19915;-88
2022/09/21 02:58:36;;;;;;;;;;;;;;;;;;4915676;29;20370;-91
2022/09/21 03:01:05;;;;;;;;;;;;;;;;;;4914964;29;19943;-88
2022/09/21 03:03:30;;;;;;;;;;;;;;;;;;4915525;29;19929;-89
2022/09/21 03:05:56;;;;;;;;;;;;;;;;;;4915737;29;20377;-89
2022/09/21 03:08:21;;;;;;;;;;;;;;;;;;4915708;29;19911;-89
2022/09/21 03:10:49;;;;;;;;;;;;;;;;;;4915662;29;20369;-91
2022/09/21 03:13:14;;;;;;;;;;;;;;;;;;4915470;29;19957;-88
2022/09/21 03:15:39;;;;;;;;;;;;;;;;;;4915399;29;19954;-89
2022/09/21 03:18:05;;;;;;;;;;;;;;;;;;4915756;29;19911;-89
2022/09/21 03:20:31;;;;;;;;;;;;;;;;;;4915589;29;19911;-89
2022/09/21 03:22:56;;;;;;;;;;;;;;;;;;4915391;29;19930;-90
2022/09/21 03:25:21;;;;;;;;;;;;;;;;;;4915352;29;19958;-88
2022/09/21 03:27:46;;;;;;;;;;;;;;;;;;4915460;29;19911;-91
2022/09/21 03:30:13;;;;;;;;;;;;;;;;;;4914373;29;20242;-89
2022/09/21 03:32:38;;;;;;;;;;;;;;;;;;4913587;29;20179;-88
2022/09/21 03:35:03;;;;;;;;;;;;;;;;;;4915101;29;19926;-88
2022/09/21 03:37:29;;;;;;;;;;;;;;;;;;4915685;29;19911;-90
2022/09/21 03:39:55;;;;;;;;;;;;;;;;;;4915698;29;19911;-89
2022/09/21 03:42:20;;;;;;;;;;;;;;;;;;4915363;29;19911;-88
2022/09/21 03:44:45;;;;;;;;;;;;;;;;;;4915645;29;19994;-92
2022/09/21 03:47:10;;;;;;;;;;;;;;;;;;4915236;29;20071;-88
2022/09/21 03:49:35;;;;;;;;;;;;;;;;;;4915650;29;19954;-88
2022/09/21 03:52:01;;;;;;;;;;;;;;;;;;4915296;29;20300;-89
2022/09/21 03:54:26;;;;;;;;;;;;;;;;;;4915173;29;19926;-89
2022/09/21 03:56:51;;;;;;;;;;;;;;;;;;4915490;29;20378;-89
2022/09/21 03:59:16;;;;;;;;;;;;;;;;;;4915237;29;19915;-89
2022/09/21 04:01:41;;;;;;;;;;;;;;;;;;4914718;29;20361;-91
2022/09/21 04:04:06;;;;;;;;;;;;;;;;;;4915184;29;20051;-89
2022/09/21 04:06:32;;;;;;;;;;;;;;;;;;4914432;29;19987;-89
2022/09/21 04:08:59;;;;;;;;;;;;;;;;;;4915091;29;19990;-88
2022/09/21 04:11:24;;;;;;;;;;;;;;;;;;4915015;29;19919;-88
2022/09/21 04:13:50;;;;;;;;;;;;;;;;;;4915333;29;19918;-90
2022/09/21 04:16:16;;;;;;;;;;;;;;;;;;4915271;29;20354;-88
2022/09/21 04:18:41;;;;;;;;;;;;;;;;;;4914571;29;20088;-92
2022/09/21 04:21:07;;;;;;;;;;;;;;;;;;4914538;29;19911;-88
2022/09/21 04:23:32;;;;;;;;;;;;;;;;;;4914714;29;19915;-88
2022/09/21 04:25:57;;;;;;;;;;;;;;;;;;4914412;29;19962;-88
2022/09/21 04:28:22;;;;;;;;;;;;;;;;;;4914782;29;19926;-88
2022/09/21 04:30:47;;;;;;;;;;;;;;;;;;4914331;29;20293;-91
2022/09/21 04:33:13;;;;;;;;;;;;;;;;;;4914465;29;19919;-88
2022/09/21 04:35:38;;;;;;;;;;;;;;;;;;4929639;29;19914;-90
2022/09/21 04:38:03;;;;;;;;;;;;;;;;;;4952737;29;20501;-89
2022/09/21 04:40:28;;;;;;;;;;;;;;;;;;4953187;29;19911;-89
2022/09/21 04:42:54;;;;;;;;;;;;;;;;;;4952902;29;19910;-88
2022/09/21 04:45:19;;;;;;;;;;;;;;;;;;4952431;29;19910;-92
2022/09/21 04:47:44;;;;;;;;;;;;;;;;;;4952828;29;19922;-87
2022/09/21 04:50:09;;;;;;;;;;;;;;;;;;4952630;29;19911;-89
2022/09/21 04:52:35;;;;;;;;;;;;;;;;;;4952976;29;20353;-88
2022/09/21 04:55:00;;;;;;;;;;;;;;;;;;4953055;29;19915;-90
2022/09/21 04:57:26;;;;;;;;;;;;;;;;;;4952800;29;19910;-89
2022/09/21 04:59:51;;;;;;;;;;;;;;;;;;4952545;29;19911;-87
2022/09/21 05:02:16;;;;;;;;;;;;;;;;;;4952124;29;19918;-88
2022/09/21 05:04:41;;;;;;;;;;;;;;;;;;4952625;29;19917;-88
2022/09/21 05:07:06;;;;;;;;;;;;;;;;;;4952438;29;19946;-89
2022/09/21 05:12:15;;;;;;;;;;;;;;;;;;4952011;29;20423;-88
2022/09/21 05:14:42;;;;;;;;;;;;;;;;;;4952109;29;19926;-88
2022/09/21 05:17:08;;;;;;;;;;;;;;;;;;4952198;28;19918;-88
2022/09/21 05:19:33;;;;;;;;;;;;;;;;;;4955671;29;19911;-88
2022/09/21 05:21:58;;;;;;;;;;;;;;;;;;4955749;29;19938;-91
2022/09/21 05:24:23;;;;;;;;;;;;;;;;;;4956103;29;19921;-91
2022/09/21 05:26:48;;;;;;;;;;;;;;;;;;4955753;29;19914;-88
2022/09/21 05:29:13;;;;;;;;;;;;;;;;;;4955521;29;20481;-89
2022/09/21 05:31:39;;;;;;;;;;;;;;;;;;4939714;29;19911;-89
2022/09/21 05:34:04;;;;;;;;;;;;;;;;;;4916105;29;20376;-89
2022/09/21 05:36:29;;;;;;;;;;;;;;;;;;4916713;29;19915;-88
2022/09/21 05:38:55;;;;;;;;;;;;;;;;;;4916616;29;19911;-91
2022/09/21 05:41:20;;;;;;;;;;;;;;;;;;4917009;29;19911;-89
2022/09/21 05:43:45;;;;;;;;;;;;;;;;;;4917242;29;20041;-88
2022/09/21 05:46:11;;;;;;;;;;;;;;;;;;4916973;29;19911;-88
2022/09/21 05:48:36;;;;;;;;;;;;;;;;;;4927572;29;19922;-90
2022/09/21 05:51:01;;;;;;;;;;;;;;;;;;4935932;29;20417;-88
2022/09/21 05:53:26;;;;;;;;;;;;;;;;;;4936338;29;19978;-90
2022/09/21 05:55:51;;;;;;;;;;;;;;;;;;4935798;29;20472;-88
2022/09/21 05:58:18;;;;;;;;;;;;;;;;;;4935358;29;22206;-88
2022/09/21 06:00:44;;;;;;;;;;;;;;;;;;4936116;29;19998;-88
2022/09/21 06:03:09;;;;;;;;;;;;;;;;;;4935767;29;19907;-87
2022/09/21 06:05:34;;;;;;;;;;;;;;;;;;4935789;29;19918;-88
2022/09/21 06:07:59;;;;;;;;;;;;;;;;;;4935665;29;20361;-88
2022/09/21 06:10:25;;;;;;;;;;;;;;;;;;4935972;29;19923;-88
2022/09/21 06:12:52;;;;;;;;;;;;;;;;;;4936655;29;20525;-88
2022/09/21 06:15:17;;;;;;;;;;;;;;;;;;4954648;29;19964;-88
2022/09/21 06:17:43;;;;;;;;;;;;;;;;;;4953965;29;19946;-88
2022/09/21 06:20:08;;;;;;;;;;;;;;;;;;4953693;29;19966;-90
2022/09/21 06:22:33;;;;;;;;;;;;;;;;;;4954243;29;19997;-89
2022/09/21 06:24:58;;;;;;;;;;;;;;;;;;4954520;29;19914;-90
2022/09/21 06:27:23;;;;;;;;;;;;;;;;;;4954526;29;19911;-89
2022/09/21 06:29:48;;;;;;;;;;;;;;;;;;4954276;28;20292;-88
2022/09/21 06:32:14;;;;;;;;;;;;;;;;;;4954653;29;20042;-89
2022/09/21 06:34:39;;;;;;;;;;;;;;;;;;4954542;29;20368;-88
2022/09/21 06:37:04;;;;;;;;;;;;;;;;;;4954589;29;20356;-90
2022/09/21 06:39:29;;;;;;;;;;;;;;;;;;4954527;29;20373;-88
2022/09/21 06:41:55;;;;;;;;;;;;;;;;;;4954595;29;19953;-91
2022/09/21 06:44:20;;;;;;;;;;;;;;;;;;4954098;29;20293;-88
2022/09/21 06:46:45;;;;;;;;;;;;;;;;;;4954425;29;19915;-90
2022/09/21 06:49:11;;;;;;;;;;;;;;;;;;4954129;29;19916;-89
2022/09/21 06:51:36;;;;;;;;;;;;;;;;;;4954024;29;19977;-90
2022/09/21 06:54:01;;;;;;;;;;;;;;;;;;4954047;29;19911;-89
2022/09/21 06:56:26;;;;;;;;;;;;;;;;;;4953758;29;19914;-87
2022/09/21 06:58:51;;;;;;;;;;;;;;;;;;4954143;29;19914;-88
2022/09/21 07:01:17;;;;;;;;;;;;;;;;;;4953702;29;20315;-88
2022/09/21 07:03:42;;;;;;;;;;;;;;;;;;4952718;29;19915;-90
2022/09/21 07:06:07;;;;;;;;;;;;;;;;;;4952502;29;19911;-88
2022/09/21 07:08:32;;;;;;;;;;;;;;;;;;4953817;29;19965;-91
2022/09/21 07:10:57;;;;;;;;;;;;;;;;;;4953416;29;19919;-88
2022/09/21 07:13:23;;;;;;;;;;;;;;;;;;4953417;29;20001;-88
2022/09/21 07:15:48;;;;;;;;;;;;;;;;;;4953870;29;19969;-88
2022/09/21 07:18:13;;;;;;;;;;;;;;;;;;4941150;29;19969;-88
2022/09/21 07:20:39;;;;;;;;;;;;;;;;;;4932857;29;20032;-90
2022/09/21 07:23:05;;;;;;;;;;;;;;;;;;4947288;29;19915;-88
2022/09/21 07:25:30;;;;;;;;;;;;;;;;;;4939834;29;19962;-87
2022/09/21 07:27:55;;;;;;;;;;;;;;;;;;4934511;29;19918;-88
2022/09/21 07:30:20;;;;;;;;;;;;;;;;;;4940143;29;19911;-87
2022/09/21 07:32:45;;;;;;;;;;;;;;;;;;4934060;29;19970;-87
2022/09/21 07:35:11;;;;;;;;;;;;;;;;;;4941944;29;19914;-89
2022/09/21 07:37:36;;;;;;;;;;;;;;;;;;4935683;29;19911;-89
2022/09/21 07:40:04;;;;;;;;;;;;;;;;;;4936494;29;19916;-90
2022/09/21 07:42:29;;;;;;;;;;;;;;;;;;4928601;29;20385;-89
2022/09/21 07:44:55;;;;;;;;;;;;;;;;;;4933870;29;19914;-88
2022/09/21 07:47:20;;;;;;;;;;;;;;;;;;4927383;29;19915;-87
2022/09/21 07:49:45;;;;;;;;;;;;;;;;;;4920599;29;19958;-88
2022/09/21 07:52:11;;;;;;;;;;;;;;;;;;4933879;29;19959;-88
2022/09/21 07:54:36;;;;;;;;;;;;;;;;;;4933699;29;19977;-89
2022/09/21 07:59:45;;;;;;;;;;;;;;;;;;4920287;29;19974;-88
2022/09/21 08:02:10;;;;;;;;;;;;;;;;;;4932756;29;20409;-87
2022/09/21 08:04:35;;;;;;;;;;;;;;;;;;4933473;29;19911;-89
2022/09/21 08:07:00;;;;;;;;;;;;;;;;;;4933624;29;19946;-87
2022/09/21 08:09:26;;;;;;;;;;;;;;;;;;4933181;29;19917;-89
2022/09/21 08:11:51;;;;;;;;;;;;;;;;;;4933416;29;20095;-89
2022/09/21 08:14:19;;;;;;;;;;;;;;;;;;4933789;29;19953;-87
2022/09/21 08:16:45;;;;;;;;;;;;;;;;;;4915926;29;19950;-87
2022/09/21 08:19:10;;;;;;;;;;;;;;;;;;4932325;29;19961;-89
2022/09/21 08:21:36;;;;;;;;;;;;;;;;;;4927048;29;19952;-87
2022/09/21 08:24:01;;;;;;;;;;;;;;;;;;4933138;29;20005;-88
2022/09/21 08:26:26;;;;;;;;;;;;;;;;;;4932709;29;19947;-87
2022/09/21 08:28:51;;;;;;;;;;;;;;;;;;4933094;29;19915;-89
2022/09/21 08:31:18;;;;;;;;;;;;;;;;;;4933674;29;19965;-87
2022/09/21 08:33:43;;;;;;;;;;;;;;;;;;4933461;29;20288;-87
2022/09/21 08:36:08;;;;;;;;;;;;;;;;;;4933000;29;19926;-87
2022/09/21 08:38:33;;;;;;;;;;;;;;;;;;4932487;29;19937;-88
2022/09/21 08:40:58;;;;;;;;;;;;;;;;;;4933093;29;19915;-87
2022/09/21 08:43:24;;;;;;;;;;;;;;;;;;4925350;29;20022;-87
2022/09/21 08:45:49;;;;;;;;;;;;;;;;;;4932569;29;19915;-87
2022/09/21 08:48:15;;;;;;;;;;;;;;;;;;4932082;29;20349;-89
2022/09/21 08:50:40;;;;;;;;;;;;;;;;;;4933025;29;19910;-90
2022/09/21 08:53:05;;;;;;;;;;;;;;;;;;4933234;29;19921;-87
2022/09/21 08:55:30;;;;;;;;;;;;;;;;;;4935378;29;20253;-88
2022/09/21 08:57:56;;;;;;;;;;;;;;;;;;4935099;29;20014;-87
2022/09/21 09:00:21;;;;;;;;;;;;;;;;;;4935716;29;19950;-86
2022/09/21 09:02:47;;;;;;;;;;;;;;;;;;4935918;29;19962;-88
2022/09/21 09:05:12;;;;;;;;;;;;;;;;;;4935025;29;19922;-89
2022/09/21 09:07:37;;;;;;;;;;;;;;;;;;4931837;29;20361;-87
2022/09/21 09:10:02;;;;;;;;;;;;;;;;;;4931263;29;19919;-87
2022/09/21 09:12:28;;;;;;;;;;;;;;;;;;4932477;29;19982;-87
2022/09/21 09:14:53;;;;;;;;;;;;;;;;;;4941180;29;19966;-88
2022/09/21 09:17:18;;;;;;;;;;;;;;;;;;4933298;29;19919;-88
2022/09/21 09:19:43;;;;;;;;;;;;;;;;;;4935250;29;19946;-87
2022/09/21 09:22:08;;;;;;;;;;;;;;;;;;4934029;29;19963;-86
2022/09/21 09:24:33;;;;;;;;;;;;;;;;;;4934260;29;19921;-87
2022/09/21 09:26:59;;;;;;;;;;;;;;;;;;4934798;29;20388;-87
2022/09/21 09:29:24;;;;;;;;;;;;;;;;;;4933815;29;19923;-87
2022/09/21 09:31:49;;;;;;;;;;;;;;;;;;4933315;29;20344;-87
2022/09/21 09:34:14;;;;;;;;;;;;;;;;;;4919089;29;19915;-88
2022/09/21 09:36:39;;;;;;;;;;;;;;;;;;4935608;29;20368;-88
2022/09/21 09:39:05;;;;;;;;;;;;;;;;;;4933895;29;19914;-86
2022/09/21 09:41:30;;;;;;;;;;;;;;;;;;4933499;29;19914;-88
2022/09/21 09:43:55;;;;;;;;;;;;;;;;;;4937471;29;19926;-87
2022/09/21 09:46:20;;;;;;;;;;;;;;;;;;4934474;29;19938;-89
2022/09/21 09:48:45;;;;;;;;;;;;;;;;;;4933346;29;19915;-87
2022/09/21 09:51:11;;;;;;;;;;;;;;;;;;4934901;29;19921;-89
2022/09/21 09:53:36;;;;;;;;;;;;;;;;;;4933178;29;20316;-87
2022/09/21 09:56:01;;;;;;;;;;;;;;;;;;4934423;29;19947;-87
2022/09/21 09:58:26;;;;;;;;;;;;;;;;;;4932798;29;19966;-87
2022/09/21 10:00:52;;;;;;;;;;;;;;;;;;4933549;29;20349;-87
2022/09/21 10:03:17;;;;;;;;;;;;;;;;;;4931952;29;19918;-88
2022/09/21 10:05:42;;;;;;;;;;;;;;;;;;4912141;29;19961;-88
2022/09/21 10:08:07;;;;;;;;;;;;;;;;;;4934119;29;19914;-88
2022/09/21 10:10:32;;;;;;;;;;;;;;;;;;4934806;29;19941;-88
2022/09/21 10:12:58;;;;;;;;;;;;;;;;;;4931535;29;19919;-87
2022/09/21 10:15:23;;;;;;;;;;;;;;;;;;4933422;29;19929;-87
2022/09/21 10:17:48;;;;;;;;;;;;;;;;;;4938102;29;20285;-87
2022/09/21 10:20:14;;;;;;;;;;;;;;;;;;4933791;29;19922;-88
2022/09/21 10:22:39;;;;;;;;;;;;;;;;;;4928239;29;19911;-88
2022/09/21 10:25:07;;;;;;;;;;;;;;;;;;4928537;29;19922;-87
2022/09/21 10:27:32;;;;;;;;;;;;;;;;;;4933596;29;19973;-88
2022/09/21 10:29:58;;;;;;;;;;;;;;;;;;4930219;29;20005;-87
2022/09/21 10:32:23;;;;;;;;;;;;;;;;;;4909755;29;19923;-88
2022/09/21 10:34:48;;;;;;;;;;;;;;;;;;4929438;29;19918;-87
2022/09/21 10:37:13;;;;;;;;;;;;;;;;;;4932208;29;19922;-89
2022/09/21 10:39:39;;;;;;;;;;;;;;;;;;4932554;29;19914;-88
2022/09/21 10:42:04;;;;;;;;;;;;;;;;;;4930415;29;19914;-90
2022/09/21 10:44:29;;;;;;;;;;;;;;;;;;4933261;29;19915;-87
2022/09/21 10:46:54;;;;;;;;;;;;;;;;;;4931167;29;19914;-88
2022/09/21 10:49:20;;;;;;;;;;;;;;;;;;4932173;29;19915;-87
2022/09/21 10:51:45;;;;;;;;;;;;;;;;;;4933439;29;20056;-88
2022/09/21 10:54:10;;;;;;;;;;;;;;;;;;4932045;29;19958;-87
2022/09/21 10:56:36;;;;;;;;;;;;;;;;;;4929058;29;19952;-88
2022/09/21 10:59:01;;;;;;;;;;;;;;;;;;4930499;29;19963;-87
2022/09/21 11:01:26;;;;;;;;;;;;;;;;;;4933441;29;19915;-87
2022/09/21 11:03:51;;;;;;;;;;;;;;;;;;4933316;29;20443;-88
2022/09/21 11:06:16;;;;;;;;;;;;;;;;;;4932875;29;19918;-88
2022/09/21 11:08:42;;;;;;;;;;;;;;;;;;4933441;29;19915;-87
2022/09/21 11:11:07;;;;;;;;;;;;;;;;;;4931548;29;20325;-87
2022/09/21 11:13:32;;;;;;;;;;;;;;;;;;4934067;29;19926;-87
2022/09/21 11:15:57;;;;;;;;;;;;;;;;;;4931743;29;20009;-88
2022/09/21 11:18:22;;;;;;;;;;;;;;;;;;4933214;29;19922;-89
2022/09/21 11:20:47;;;;;;;;;;;;;;;;;;4921705;29;19910;-89
2022/09/21 11:23:13;;;;;;;;;;;;;;;;;;4931992;29;19922;-89
2022/09/21 11:25:38;;;;;;;;;;;;;;;;;;4930678;29;19963;-88
2022/09/21 11:28:03;;;;;;;;;;;;;;;;;;4930497;29;20025;-91
2022/09/21 11:30:28;;;;;;;;;;;;;;;;;;4931630;29;19926;-87
2022/09/21 11:32:54;;;;;;;;;;;;;;;;;;4933477;29;19990;-87
2022/09/21 11:35:19;;;;;;;;;;;;;;;;;;4931843;29;19922;-87
2022/09/21 11:37:44;;;;;;;;;;;;;;;;;;4932217;29;20377;-87
2022/09/21 11:40:09;;;;;;;;;;;;;;;;;;4930466;29;19954;-88
2022/09/21 11:42:34;;;;;;;;;;;;;;;;;;4931946;29;19915;-87
2022/09/21 11:44:59;;;;;;;;;;;;;;;;;;4932513;29;20023;-87
2022/09/21 11:47:24;;;;;;;;;;;;;;;;;;4929490;29;19948;-87
2022/09/21 11:49:50;;;;;;;;;;;;;;;;;;4931314;29;19997;-89
2022/09/21 11:52:15;;;;;;;;;;;;;;;;;;4931864;29;20566;-89
2022/09/21 11:54:40;;;;;;;;;;;;;;;;;;4931034;29;19921;-87
2022/09/21 11:57:05;;;;;;;;;;;;;;;;;;4928267;29;20377;-88
2022/09/21 11:59:30;;;;;;;;;;;;;;;;;;4930304;29;19922;-87
2022/09/21 12:01:56;;;;;;;;;;;;;;;;;;4929426;29;20381;-88
2022/09/21 12:04:21;;;;;;;;;;;;;;;;;;4930494;29;19919;-86
2022/09/21 12:06:46;;;;;;;;;;;;;;;;;;4931182;29;19915;-88
2022/09/21 12:09:11;;;;;;;;;;;;;;;;;;4925246;29;19911;-88
2022/09/21 12:11:36;;;;;;;;;;;;;;;;;;4930296;29;20292;-87
2022/09/21 12:14:02;;;;;;;;;;;;;;;;;;4930775;29;19914;-87
2022/09/21 12:16:27;;;;;;;;;;;;;;;;;;4930207;29;19919;-88
2022/09/21 12:18:52;;;;;;;;;;;;;;;;;;4929548;29;19967;-91
2022/09/21 12:21:18;;;;;;;;;;;;;;;;;;4930818;29;19914;-88
2022/09/21 12:23:43;;;;;;;;;;;;;;;;;;4923242;29;19919;-89
2022/09/21 12:26:08;;;;;;;;;;;;;;;;;;4923980;29;20513;-89
2022/09/21 12:28:33;;;;;;;;;;;;;;;;;;4933946;29;19930;-89
2022/09/21 12:31:00;;;;;;;;;;;;;;;;;;4933317;29;20385;-88
2022/09/21 12:33:25;;;;;;;;;;;;;;;;;;4933095;29;20424;-87
2022/09/21 12:35:50;;;;;;;;;;;;;;;;;;4933262;29;19919;-87
2022/09/21 12:38:15;;;;;;;;;;;;;;;;;;4933796;29;19915;-87
2022/09/21 12:40:42;;;;;;;;;;;;;;;;;;4934578;29;19919;-88
2022/09/21 12:43:07;;;;;;;;;;;;;;;;;;4931846;29;20009;-90
2022/09/21 12:45:32;;;;;;;;;;;;;;;;;;4932639;29;20018;-87
2022/09/21 12:47:57;;;;;;;;;;;;;;;;;;4934404;29;20373;-87
2022/09/21 12:50:22;;;;;;;;;;;;;;;;;;4933405;29;19935;-87
2022/09/21 12:52:48;;;;;;;;;;;;;;;;;;4934830;29;19979;-89
2022/09/21 12:55:14;;;;;;;;;;;;;;;;;;4930902;29;20381;-88
2022/09/21 12:57:42;;;;;;;;;;;;;;;;;;4933267;29;19914;-89
2022/09/21 13:00:07;;;;;;;;;;;;;;;;;;4933696;29;19931;-88
2022/09/21 13:02:32;;;;;;;;;;;;;;;;;;4932915;29;20164;-87
2022/09/21 13:04:57;;;;;;;;;;;;;;;;;;4933153;29;19922;-88
2022/09/21 13:07:22;;;;;;;;;;;;;;;;;;4929243;29;19919;-87
2022/09/21 13:09:48;;;;;;;;;;;;;;;;;;4933357;29;19915;-87
2022/09/21 13:12:13;;;;;;;;;;;;;;;;;;4930999;29;19935;-87
2022/09/21 13:14:38;;;;;;;;;;;;;;;;;;4932457;29;19915;-87
2022/09/21 13:17:03;;;;;;;;;;;;;;;;;;4932944;29;19915;-87
2022/09/21 13:19:28;;;;;;;;;;;;;;;;;;4937669;29;19993;-88
2022/09/21 13:21:54;;;;;;;;;;;;;;;;;;4934979;29;19921;-88
2022/09/21 13:24:19;;;;;;;;;;;;;;;;;;4932432;29;19982;-87
2022/09/21 13:26:44;;;;;;;;;;;;;;;;;;4933995;29;20300;-87
2022/09/21 13:29:09;;;;;;;;;;;;;;;;;;4933374;29;19962;-88
2022/09/21 13:31:35;;;;;;;;;;;;;;;;;;4932190;29;19970;-87
2022/09/21 13:34:00;;;;;;;;;;;;;;;;;;4932630;29;20011;-87
2022/09/21 13:36:25;;;;;;;;;;;;;;;;;;4932743;29;19919;-87
2022/09/21 13:38:51;;;;;;;;;;;;;;;;;;4929785;29;19915;-89
2022/09/21 13:41:16;;;;;;;;;;;;;;;;;;4931010;29;20456;-89
2022/09/21 13:43:45;;;;;;;;;;;;;;;;;;4932385;29;19915;-89
2022/09/21 13:46:10;;;;;;;;;;;;;;;;;;4931296;29;20293;-88
2022/09/21 13:48:36;;;;;;;;;;;;;;;;;;4929781;29;19914;-88
2022/09/21 13:51:01;;;;;;;;;;;;;;;;;;4933700;29;20369;-88
2022/09/21 13:53:27;;;;;;;;;;;;;;;;;;4926514;29;19925;-87
2022/09/21 13:55:52;;;;;;;;;;;;;;;;;;4931161;29;19925;-88
2022/09/21 13:58:17;;;;;;;;;;;;;;;;;;4933471;29;20304;-87
2022/09/21 14:00:43;;;;;;;;;;;;;;;;;;4933404;29;19996;-88
2022/09/21 14:03:08;;;;;;;;;;;;;;;;;;4928380;29;19919;-88
2022/09/21 14:05:34;;;;;;;;;;;;;;;;;;4933558;29;20346;-89
2022/09/21 14:07:59;;;;;;;;;;;;;;;;;;4933636;29;19943;-88
2022/09/21 14:10:24;;;;;;;;;;;;;;;;;;4932257;28;20239;-88
2022/09/21 14:12:49;;;;;;;;;;;;;;;;;;4932861;29;19925;-87
2022/09/21 14:15:14;;;;;;;;;;;;;;;;;;4936236;29;20330;-88
2022/09/21 14:17:39;;;;;;;;;;;;;;;;;;4933033;29;19919;-87
2022/09/21 14:20:05;;;;;;;;;;;;;;;;;;4934860;29;19915;-88
2022/09/21 14:22:30;;;;;;;;;;;;;;;;;;4932889;29;19923;-89
2022/09/21 14:24:56;;;;;;;;;;;;;;;;;;4932664;29;20018;-88
2022/09/21 14:27:24;;;;;;;;;;;;;;;;;;4933400;29;19930;-88
2022/09/21 14:29:49;;;;;;;;;;;;;;;;;;4934415;29;19911;-89
2022/09/21 14:32:15;;;;;;;;;;;;;;;;;;4933516;29;19922;-88
2022/09/21 14:34:40;;;;;;;;;;;;;;;;;;4933298;29;19915;-89
2022/09/21 14:37:05;;;;;;;;;;;;;;;;;;4931823;29;19915;-90
2022/09/21 14:39:30;;;;;;;;;;;;;;;;;;4932510;29;20456;-87
2022/09/21 14:41:56;;;;;;;;;;;;;;;;;;4933110;29;19915;-88
2022/09/21 14:44:21;;;;;;;;;;;;;;;;;;4929457;29;19937;-87
2022/09/21 14:46:46;;;;;;;;;;;;;;;;;;4932293;29;19914;-88
2022/09/21 14:49:11;;;;;;;;;;;;;;;;;;4931622;29;20047;-90
2022/09/21 14:51:37;;;;;;;;;;;;;;;;;;4930310;29;19919;-87
2022/09/21 14:54:02;;;;;;;;;;;;;;;;;;4932584;29;19915;-87
2022/09/21 14:56:29;;;;;;;;;;;;;;;;;;4931418;29;19926;-89
2022/09/21 14:58:54;;;;;;;;;;;;;;;;;;4933029;29;19947;-87
2022/09/21 15:01:19;;;;;;;;;;;;;;;;;;4932552;29;19915;-88
2022/09/21 15:03:44;;;;;;;;;;;;;;;;;;4931245;29;19938;-88
2022/09/21 15:10:54;;;;;;;;;;;;;;;;;;4932860;29;19918;-88
2022/09/21 15:11:38;;;;;;;;;;;;;;;;;;4932542;29;19930;-87
2022/09/21 15:14:03;;;;;;;;;;;;;;;;;;4933963;29;19922;-88
2022/09/21 15:16:33;;;;;;;;;;;;;;;;;;4931823;29;19926;-88
2022/09/21 15:18:58;;;;;;;;;;;;;;;;;;4936885;29;19922;-88
2022/09/21 15:21:25;;;;;;;;;;;;;;;;;;4916148;29;20330;-88
2022/09/21 15:23:51;;;;;;;;;;;;;;;;;;4933409;29;19963;-88
2022/09/21 15:26:18;;;;;;;;;;;;;;;;;;4932381;29;20274;-88
2022/09/21 15:28:47;;;;;;;;;;;;;;;;;;4932899;29;19989;-88
2022/09/21 15:31:13;;;;;;;;;;;;;;;;;;4927648;29;19977;-89
2022/09/21 15:33:41;;;;;;;;;;;;;;;;;;4927138;29;19915;-88
2022/09/21 15:36:08;;;;;;;;;;;;;;;;;;4931451;29;20030;-91
2022/09/21 15:38:35;;;;;;;;;;;;;;;;;;4932309;29;19923;-89
2022/09/21 15:41:00;;;;;;;;;;;;;;;;;;4931324;29;20362;-88
2022/09/21 15:43:25;;;;;;;;;;;;;;;;;;4930656;29;19929;-87
2022/09/21 15:45:50;;;;;;;;;;;;;;;;;;4931827;29;20223;-88
2022/09/21 15:48:15;;;;;;;;;;;;;;;;;;4929984;29;19918;-87
2022/09/21 15:50:42;;;;;;;;;;;;;;;;;;4931896;29;19915;-88
2022/09/21 15:53:08;;;;;;;;;;;;;;;;;;4930969;29;19948;-88
2022/09/21 15:55:33;;;;;;;;;;;;;;;;;;4930428;29;19941;-90
2022/09/21 15:57:58;;;;;;;;;;;;;;;;;;4928410;29;20374;-88
2022/09/21 16:00:23;;;;;;;;;;;;;;;;;;4929700;29;19926;-88
2022/09/21 16:02:49;;;;;;;;;;;;;;;;;;4932372;29;19915;-88
2022/09/21 16:05:14;;;;;;;;;;;;;;;;;;4931121;29;19923;-89
2022/09/21 16:07:40;;;;;;;;;;;;;;;;;;4931679;29;19961;-88
2022/09/21 16:10:05;;;;;;;;;;;;;;;;;;4932035;29;19941;-92
2022/09/21 16:12:30;;;;;;;;;;;;;;;;;;4926922;29;19923;-86
2022/09/21 16:14:55;;;;;;;;;;;;;;;;;;4928001;29;19953;-86
2022/09/21 16:17:21;;;;;;;;;;;;;;;;;;4930069;29;19915;-86
2022/09/21 16:19:46;;;;;;;;;;;;;;;;;;4927985;29;19923;-86
2022/09/21 16:22:12;;;;;;;;;;;;;;;;;;4928334;29;20886;-86
2022/09/21 16:24:37;;;;;;;;;;;;;;;;;;4930292;29;19915;-86
2022/09/21 16:27:03;;;;;;;;;;;;;;;;;;4928809;29;19919;-86
2022/09/21 16:29:28;;;;;;;;;;;;;;;;;;4926833;29;19986;-86
2022/09/21 16:31:53;;;;;;;;;;;;;;;;;;4927000;29;20313;-86
2022/09/21 16:34:20;;;;;;;;;;;;;;;;;;4928932;29;20391;-86
2022/09/21 16:36:45;;;;;;;;;;;;;;;;;;4931147;29;19919;-86
2022/09/21 16:39:11;;;;;;;;;;;;;;;;;;4921008;29;19926;-86
2022/09/21 16:41:36;;;;;;;;;;;;;;;;;;4923182;29;20455;-86